Terminal Aerodrome Forecast
Issued by NWS Twin Cities, MN

Home | Current Version | Previous Version | Graphics & Text | Print | Product List | Glossary On
Versions: 1 2 3 4 5 6 7 8 9 10 11 12 13 14 15 16 17 18 19 20
000
FTUS43 KMPX 272300
TAFSTC
TAF
KSTC 272332Z 2800/2824 29007KT P6SM -SHRA SCT030 OVC070
      TEMPO 2800/2801 5SM -SHRA
     FM280100 28009KT P6SM FEW035 OVC060
     FM281200 27011G19KT P6SM BKN100
     FM281300 29014G23KT P6SM BKN015 OVC040
     FM282200 28018G25KT P6SM SCT025 OVC040=

USA.gov is the U.S. government's official web portal to all federal, state and local government web resources and services.